Terminal Aerodrome Forecast
Issued by NWS Cleveland, OH

Home | Current Version | Previous Version | Graphics & Text | Print | Product List | Glossary On
Versions: 1 2 3 4 5 6 7 8 9 10 11 12
000
FTUS41 KCLE 271135
TAFYNG
TAF
KYNG 271135Z 2712/2812 VRB04KT P6SM SCT020 OVC060
      TEMPO 2712/2714 SCT015 BKN020 OVC040
     FM271400 32004KT P6SM BKN020 OVC040
     FM271800 33005KT P6SM SCT020 BKN040
     FM280300 VRB03KT P6SM FEW040
      TEMPO 2808/2812 3SM BR=

USA.gov is the U.S. government's official web portal to all federal, state and local government web resources and services.